Bookmark and Share
Track history (hours):
 

Finlandia

Last reported at 2014-Apr-16 13:33 UTC. Time now 2014-Apr-16 13:41 UTC.
Position N 59°50' E 024°53'.

Length 175 m; draft 7 m.

Type: Passenger vessel. MMSI: 230628000.

NotesDate/timePositionNaut miles runAvg speedWind from/ knotsBaromVisibWave heightAir tempDewpointWater temp
2014-Apr-16 13:33N 59°50' E 024°53'1918.9
2014-Apr-16 12:33N 60°09' E 024°55'0 0.0
2014-Apr-16 11:33N 60°09' E 024°55'3517.3
2014-Apr-16 09:33N 59°35' E 024°42'9 8.9
2014-Apr-16 08:33N 59°27' E 024°46'2 2.1
2014-Apr-16 07:33N 59°29' E 024°46'1919.5
2014-Apr-16 06:33N 59°48' E 024°49'2020.4
2014-Apr-16 05:34N 60°09' E 024°54'1 0.9
2014-Apr-16 04:33N 60°09' E 024°55'0 0.0
2014-Apr-16 03:33N 60°09' E 024°55'0 0.0
2014-Apr-16 01:24N 60°09' E 024°55'0 0.0
2014-Apr-16 00:21N 60°09' E 024°55'0 0.0
2014-Apr-15 23:33N 60°09' E 024°55'0 0.0
2014-Apr-15 22:24N 60°09' E 024°55'0 0.0
2014-Apr-15 21:30N 60°09' E 024°55'0 0.0
2014-Apr-15 20:18N 60°09' E 024°55'0 0.0
2014-Apr-15 19:27N 60°09' E 024°55'0 0.0
2014-Apr-15 18:33N 60°09' E 024°55'9 9.2
2014-Apr-15 17:34N 60°00' E 024°54'2323.3
2014-Apr-15 16:34N 59°38' E 024°42'1110.7
2014-Apr-15 15:32N 59°27' E 024°46'0 0.4
2014-Apr-15 14:33N 59°27' E 024°47'2110.4
2014-Apr-15 12:34N 59°48' E 024°50'2121.3
2014-Apr-15 11:34N 60°09' E 024°54'1 0.6
2014-Apr-15 10:31N 60°09' E 024°55'3417.3
2014-Apr-15 08:34N 59°36' E 024°41'6 3.1
2014-Apr-15 06:34N 59°30' E 024°44'2322.1
2014-Apr-15 05:33N 59°53' E 024°51'17 8.5
2014-Apr-15 03:34N 60°09' E 024°55'0 0.0
2014-Apr-15 02:34N 60°09' E 024°55'0 0.0
2014-Apr-14 23:34N 60°09' E 024°55'0 0.0
2014-Apr-14 22:34N 60°09' E 024°55'0 0.0
2014-Apr-14 21:31N 60°09' E 024°55'9 1.9
2014-Apr-14 16:34N 59°60' E 024°54'2121.0
2014-Apr-14 15:34N 59°40' E 024°44'1312.9
2014-Apr-14 14:34N 59°27' E 024°46'0 0.1
2014-Apr-14 13:34N 59°27' E 024°46'4220.9
2014-Apr-14 11:34N 60°08' E 024°54'1 1.1
2014-Apr-14 10:32N 60°09' E 024°55'1413.6
2014-Apr-14 09:31N 59°56' E 024°52'2021.0
2014-Apr-14 08:34N 59°36' E 024°41'10 9.5
2014-Apr-14 07:32N 59°27' E 024°46'3 3.6
2014-Apr-14 06:33N 59°30' E 024°45'2120.1
2014-Apr-14 05:32N 59°51' E 024°50'19 2.7
2014-Apr-13 22:30N 60°09' E 024°55'0 0.0
2014-Apr-13 21:27N 60°09' E 024°55'0 0.0
2014-Apr-13 20:24N 60°09' E 024°55'0 0.0
2014-Apr-13 18:13N 60°09' E 024°55'812.0
2014-Apr-13 17:33N 60°01' E 024°55'2120.9
2014-Apr-13 16:33N 59°42' E 024°41'1514.7
2014-Apr-13 15:32N 59°27' E 024°46'0 0.1
2014-Apr-13 14:34N 59°27' E 024°46'2020.4
2014-Apr-13 13:34N 59°47' E 024°49'2221.8
2014-Apr-13 12:33N 60°09' E 024°55'1 0.6
2014-Apr-13 11:31N 60°09' E 024°55'1313.3
2014-Apr-13 10:32N 59°56' E 024°53'2222.7
2014-Apr-13 09:34N 59°35' E 024°42'8 8.1
2014-Apr-13 08:33N 59°27' E 024°46'3 2.9
2014-Apr-13 07:33N 59°30' E 024°45'1919.4
2014-Apr-13 06:33N 59°49' E 024°46'2019.9
2014-Apr-13 05:34N 60°08' E 024°54'1 0.9
2014-Apr-13 04:33N 60°09' E 024°55'0 0.0
2014-Apr-13 03:31N 60°09' E 024°55'0 0.0
2014-Apr-13 02:31N 60°09' E 024°55'0 0.0
2014-Apr-13 01:25N 60°09' E 024°55'0 0.0
2014-Apr-12 23:28N 60°09' E 024°55'0 0.0
2014-Apr-12 22:25N 60°09' E 024°55'0 0.0
2014-Apr-12 21:33N 60°09' E 024°55'0 0.0
2014-Apr-12 20:15N 60°09' E 024°55'0 0.0
2014-Apr-12 18:34N 60°09' E 024°55'9 9.0
2014-Apr-12 17:33N 60°00' E 024°54'2322.6
2014-Apr-12 16:34N 59°38' E 024°42'1211.6
2014-Apr-12 15:32N 59°27' E 024°46'2 2.1
2014-Apr-12 14:34N 59°29' E 024°46'2323.3
2014-Apr-12 13:34N 59°52' E 024°51'1716.9
2014-Apr-12 12:32N 60°09' E 024°55'0 0.0
2014-Apr-12 11:32N 60°09' E 024°55'1211.9
2014-Apr-12 10:33N 59°58' E 024°54'2019.9
2014-Apr-12 09:33N 59°39' E 024°43'1211.9
2014-Apr-12 08:33N 59°27' E 024°46'1 1.3
2014-Apr-12 07:33N 59°28' E 024°47'2121.1
2014-Apr-12 06:33N 59°49' E 024°50'2020.1
2014-Apr-12 05:34N 60°09' E 024°55'0 0.3
2014-Apr-12 04:32N 60°09' E 024°55'0 0.0
2014-Apr-12 03:32N 60°09' E 024°55'0 0.0
2014-Apr-12 02:29N 60°09' E 024°55'0 0.0
2014-Apr-12 01:32N 60°09' E 024°55'0 0.0
2014-Apr-12 00:32N 60°09' E 024°55'0 0.0
2014-Apr-11 23:32N 60°09' E 024°55'0 0.0
2014-Apr-11 22:32N 60°09' E 024°55'0 0.0
2014-Apr-11 21:32N 60°09' E 024°55'0 0.0
2014-Apr-11 20:32N 60°09' E 024°55'0 0.0
2014-Apr-11 19:32N 60°09' E 024°55'0 0.0
2014-Apr-11 18:29N 60°09' E 024°55'9 9.8
2014-Apr-11 17:33N 60°00' E 024°54'2424.1
2014-Apr-11 16:34N 59°37' E 024°41'1110.2
2014-Apr-11 15:31N 59°27' E 024°46'0 0.1
2014-Apr-11 14:33N 59°27' E 024°46'2019.7
2014-Apr-11 13:34N 59°46' E 024°51'2322.6
2014-Apr-11 12:33N 60°09' E 024°54'0 0.5
2014-Apr-11 11:31N 60°09' E 024°55'1111.2
2014-Apr-11 10:33N 59°58' E 024°54'2121.1
2014-Apr-11 09:33N 59°38' E 024°42'1210.5
2014-Apr-11 08:28N 59°27' E 024°46'2 2.1
2014-Apr-11 07:33N 59°29' E 024°46'2120.7
2014-Apr-11 06:33N 59°49' E 024°50'2019.6
2014-Apr-11 05:34N 60°09' E 024°55'1 0.6
2014-Apr-11 04:32N 60°09' E 024°55'0 0.0
2014-Apr-11 03:32N 60°09' E 024°55'0 0.0
2014-Apr-11 02:26N 60°09' E 024°55'0 0.0
2014-Apr-11 01:29N 60°09' E 024°55'0 0.0
2014-Apr-11 00:29N 60°09' E 024°55'0 0.0
2014-Apr-10 23:29N 60°09' E 024°55'0 0.0
2014-Apr-10 22:20N 60°09' E 024°55'0 0.0
2014-Apr-10 21:32N 60°09' E 024°55'0 0.0
2014-Apr-10 20:29N 60°09' E 024°55'0 0.0
2014-Apr-10 19:26N 60°09' E 024°55'0 0.0
2014-Apr-10 18:32N 60°09' E 024°55'9 9.1
2014-Apr-10 17:33N 60°00' E 024°54'2524.7
2014-Apr-10 16:33N 59°37' E 024°41'1010.0
2014-Apr-10 15:32N 59°27' E 024°46'1 0.5
2014-Apr-10 14:33N 59°27' E 024°47'2522.3
2014-Apr-10 13:25N 59°52' E 024°51'1719.7
2014-Apr-10 12:33N 60°09' E 024°55'0 0.0
2014-Apr-10 11:34N 60°09' E 024°55'2216.5
2014-Apr-10 10:12N 59°47' E 024°49'1523.0
2014-Apr-10 09:34N 59°32' E 024°44'6 5.5
2014-Apr-10 08:33N 59°27' E 024°46'2 2.2
2014-Apr-10 07:33N 59°29' E 024°46'2721.0
2014-Apr-10 06:17N 59°55' E 024°52'1318.3
2014-Apr-10 05:33N 60°09' E 024°55'1 0.5
2014-Apr-10 04:32N 60°09' E 024°55'0 0.0
2014-Apr-10 03:32N 60°09' E 024°55'0 0.0
2014-Apr-10 02:20N 60°09' E 024°55'0 0.0
2014-Apr-10 01:29N 60°09' E 024°55'0 0.0
2014-Apr-10 00:23N 60°09' E 024°55'0 0.0
2014-Apr-09 23:29N 60°09' E 024°55'0 0.0
2014-Apr-09 22:26N 60°09' E 024°55'0 0.0
2014-Apr-09 21:23N 60°09' E 024°55'0 0.0
2014-Apr-09 20:23N 60°09' E 024°55'0 0.0
2014-Apr-09 19:26N 60°09' E 024°55'0 0.0
2014-Apr-09 18:32N 60°09' E 024°55'1010.0
2014-Apr-09 17:33N 59°60' E 024°54'2424.2
2014-Apr-09 16:33N 59°36' E 024°41'10 9.8
2014-Apr-09 15:32N 59°27' E 024°46'0 0.4
2014-Apr-09 14:34N 59°27' E 024°47'2221.8
2014-Apr-09 13:34N 59°49' E 024°50'2020.4
2014-Apr-09 12:33N 60°09' E 024°55'0 0.3
2014-Apr-09 11:33N 60°09' E 024°55'1313.2
2014-Apr-09 10:33N 59°56' E 024°52'2323.2
2014-Apr-09 09:33N 59°34' E 024°43'7 6.9
2014-Apr-09 08:32N 59°27' E 024°46'1 1.5
2014-Apr-09 07:34N 59°28' E 024°47'2019.7
2014-Apr-09 06:34N 59°48' E 024°51'2121.1
2014-Apr-09 05:33N 60°09' E 024°55'1 0.6
2014-Apr-09 04:32N 60°09' E 024°55'0 0.0
2014-Apr-09 03:32N 60°09' E 024°55'0 0.0
2014-Apr-09 02:17N 60°09' E 024°55'0 0.0
2014-Apr-09 01:29N 60°09' E 024°55'0 0.0
2014-Apr-09 00:32N 60°09' E 024°55'0 0.0
2014-Apr-08 23:32N 60°09' E 024°55'0 0.0
2014-Apr-08 22:32N 60°09' E 024°55'0 0.0
2014-Apr-08 21:32N 60°09' E 024°55'0 0.0
2014-Apr-08 20:32N 60°09' E 024°55'0 0.0
2014-Apr-08 19:32N 60°09' E 024°55'0 0.0
2014-Apr-08 18:32N 60°09' E 024°55'1010.7
2014-Apr-08 17:33N 59°59' E 024°54'2424.5
2014-Apr-08 16:34N 59°35' E 024°42'9 8.7
2014-Apr-08 15:33N 59°27' E 024°46'1 1.0
2014-Apr-08 14:33N 59°27' E 024°47'2221.8
2014-Apr-08 13:33N 59°49' E 024°50'2019.9
2014-Apr-08 12:33N 60°09' E 024°55'0 0.3
2014-Apr-08 11:33N 60°09' E 024°55'1313.6
2014-Apr-08 10:34N 59°56' E 024°53'2424.3
2014-Apr-08 09:34N 59°32' E 024°44'5 5.1
2014-Apr-08 08:32N 59°27' E 024°46'3 2.9
2014-Apr-08 07:34N 59°30' E 024°45'2019.8
2014-Apr-08 06:33N 59°49' E 024°50'2019.6
2014-Apr-08 05:33N 60°09' E 024°55'1 0.6
2014-Apr-08 04:32N 60°09' E 024°55'0 0.0
2014-Apr-08 03:32N 60°09' E 024°55'0 0.0
2014-Apr-08 02:32N 60°09' E 024°55'0 0.0
2014-Apr-08 01:26N 60°09' E 024°55'0 0.0
2014-Apr-08 00:29N 60°09' E 024°55'0 0.0
2014-Apr-07 23:32N 60°09' E 024°55'0 0.0
2014-Apr-07 22:32N 60°09' E 024°55'0 0.0
2014-Apr-07 21:23N 60°09' E 024°55'0 0.0
2014-Apr-07 20:29N 60°09' E 024°55'0 0.0
2014-Apr-07 19:32N 60°09' E 024°55'12 6.2
2014-Apr-07 17:32N 59°57' E 024°53'2323.8
2014-Apr-07 16:34N 59°34' E 024°42'8 7.7
2014-Apr-07 15:33N 59°27' E 024°46'0 0.0
2014-Apr-07 14:33N 59°27' E 024°46'1817.8
2014-Apr-07 13:34N 59°45' E 024°47'2322.8
2014-Apr-07 12:33N 60°07' E 024°55'2 2.0
2014-Apr-07 11:32N 60°09' E 024°55'1313.3
2014-Apr-07 10:33N 59°56' E 024°53'2222.5
2014-Apr-07 09:34N 59°34' E 024°42'8 7.7
2014-Apr-07 08:32N 59°27' E 024°46'2 2.1
2014-Apr-07 07:33N 59°29' E 024°46'2019.6
2014-Apr-07 06:33N 59°48' E 024°48'2020.3
2014-Apr-07 05:33N 60°09' E 024°54'1 0.8
2014-Apr-07 04:33N 60°09' E 024°55'0 0.0
2014-Apr-07 03:33N 60°09' E 024°55'0 0.0
2014-Apr-07 02:33N 60°09' E 024°55'0 0.0
2014-Apr-07 01:33N 60°09' E 024°55'0 0.0
2014-Apr-07 00:33N 60°09' E 024°55'0 0.0
2014-Apr-06 23:33N 60°09' E 024°55'0 0.0
2014-Apr-06 22:33N 60°09' E 024°55'0 0.0
2014-Apr-06 21:33N 60°09' E 024°55'0 0.0
2014-Apr-06 20:33N 60°09' E 024°55'0 0.0
2014-Apr-06 19:33N 60°09' E 024°55'0 0.0
2014-Apr-06 18:33N 60°09' E 024°55'6 6.4
2014-Apr-06 17:33N 60°03' E 024°54'2524.7
2014-Apr-06 16:33N 59°39' E 024°41'1312.2
2014-Apr-06 15:32N 59°27' E 024°46'0 0.0
2014-Apr-06 14:33N 59°27' E 024°46'1716.7
2014-Apr-06 13:34N 59°43' E 024°47'  

Dump ship's entire track history

sailing weather and tide predictions

Finlandia — OJPP — position and weather